Time;durP1;ratioP1;P1;durP2;ratioP2;P2;SDS_P1;SDS_P2;PMS_P1;PMS_P2;Temp;Humidity;BMP_temperature;BMP_pressure;BME280_temperature;BME280_humidity;BME280_pressure;Samples;Min_cycle;Max_cycle;Signal;HPM_P1;HPM_P2
2022/06/14 00:01:47;;;;;;;2.25;0.90;;;;;;;13.78;60.68;100528.13;10501354;28;20044;-68
2022/06/14 00:06:48;;;;;;;2.03;0.77;;;;;;;13.65;61.10;100530.34;10501020;28;20090;-68
2022/06/14 00:11:50;;;;;;;1.50;0.93;;;;;;;13.46;61.58;100537.19;10482720;28;20053;-68
2022/06/14 00:16:52;;;;;;;1.95;1.25;;;;;;;13.33;61.97;100539.44;10500527;28;20440;-68
2022/06/14 00:21:56;;;;;;;3.95;0.80;;;;;;;13.26;62.45;100548.47;10481967;28;20080;-68
2022/06/14 00:26:58;;;;;;;4.50;0.95;;;;;;;13.19;63.00;100546.91;10500094;28;20056;-68
2022/06/14 00:31:59;;;;;;;1.80;0.73;;;;;;;13.16;62.89;100545.25;10499768;28;20051;-68
2022/06/14 00:37:01;;;;;;;2.25;0.80;;;;;;;12.95;63.15;100551.25;10499686;28;20123;-68
2022/06/14 00:42:03;;;;;;;3.80;0.85;;;;;;;12.88;63.48;100550.56;10499435;28;20040;-68
2022/06/14 00:47:06;;;;;;;1.67;0.60;;;;;;;12.95;63.34;100549.47;10499482;28;20040;-68
2022/06/14 00:52:18;;;;;;;2.15;0.90;;;;;;;13.05;61.98;100547.38;10499121;28;20048;-70
2022/06/14 00:57:34;;;;;;;3.53;0.82;;;;;;;13.08;61.82;100553.44;10499476;28;20048;-69
2022/06/14 01:02:43;;;;;;;1.63;0.70;;;;;;;13.05;62.05;100563.22;10498941;28;20040;-68
2022/06/14 01:07:49;;;;;;;1.80;0.80;;;;;;;12.76;62.71;100556.28;10499380;28;20102;-69
2022/06/14 01:12:55;;;;;;;3.10;0.73;;;;;;;12.90;62.25;100564.59;10480484;28;20051;-68
2022/06/14 01:18:04;;;;;;;2.15;0.70;;;;;;;12.83;62.53;100570.97;10498616;28;20039;-68
2022/06/14 01:23:09;;;;;;;2.78;0.98;;;;;;;12.67;63.45;100567.13;10481721;28;20040;-68
2022/06/14 01:28:13;;;;;;;1.90;0.73;;;;;;;12.51;63.92;100570.22;10498260;28;20044;-68
2022/06/14 01:33:46;;;;;;;3.58;0.85;;;;;;;12.51;64.29;100574.66;10497716;28;20040;-68
2022/06/14 01:38:49;;;;;;;2.38;1.10;;;;;;;12.57;63.62;100569.16;10497744;28;20052;-68
2022/06/14 01:44:22;;;;;;;2.47;0.73;;;;;;;12.35;64.79;100580.41;10497729;28;20494;-68
2022/06/14 01:55:16;;;;;;;3.27;1.03;;;;;;;12.35;64.62;100593.59;10479244;28;20051;-68
2022/06/14 02:00:29;;;;;;;2.13;0.80;;;;;;;12.32;64.37;100595.44;10497806;28;20036;-69
2022/06/14 02:05:32;;;;;;;2.88;0.98;;;;;;;12.25;64.73;100597.38;10497032;28;20505;-68
2022/06/14 02:10:52;;;;;;;2.90;0.90;;;;;;;12.19;64.91;100604.63;10497077;28;20524;-68
2022/06/14 02:16:23;;;;;;;2.63;0.90;;;;;;;12.18;65.18;100605.53;10497430;28;20486;-69
2022/06/14 02:21:34;;;;;;;2.88;0.93;;;;;;;12.07;65.70;100605.84;10491564;28;20091;-68
2022/06/14 02:26:46;;;;;;;4.65;0.98;;;;;;;12.15;64.92;100605.63;10496827;28;20509;-68
2022/06/14 02:32:32;;;;;;;1.38;0.93;;;;;;;12.05;65.53;100610.28;10497711;28;20048;-68
2022/06/14 02:37:41;;;;;;;2.65;0.98;;;;;;;12.05;65.57;100608.53;10493576;28;20052;-68
2022/06/14 02:43:04;;;;;;;3.50;1.00;;;;;;;11.97;65.69;100620.19;10496828;28;20040;-68
2022/06/14 02:48:13;;;;;;;2.55;1.13;;;;;;;11.93;65.72;100618.53;10502775;28;20115;-68
2022/06/14 02:53:28;;;;;;;2.63;1.00;;;;;;;11.84;66.20;100636.31;10503976;28;20036;-68
2022/06/14 02:58:36;;;;;;;1.48;0.80;;;;;;;11.77;66.27;100632.09;10486654;28;20127;-68
2022/06/14 03:03:47;;;;;;;3.72;0.98;;;;;;;11.75;66.60;100635.69;10503543;28;20036;-68
2022/06/14 03:08:56;;;;;;;2.67;0.85;;;;;;;11.66;66.84;100649.09;10503615;28;20048;-67
2022/06/14 03:14:07;;;;;;;4.22;1.42;;;;;;;11.70;66.64;100648.97;10485030;28;20044;-68
2022/06/14 03:19:19;;;;;;;3.53;1.10;;;;;;;11.67;67.18;100653.47;10502889;28;20068;-68
2022/06/14 03:24:27;;;;;;;5.97;1.20;;;;;;;11.60;67.49;100661.53;10502744;28;20037;-67
2022/06/14 03:29:38;;;;;;;8.52;1.38;;;;;;;11.65;67.21;100655.28;10502394;28;20090;-67
2022/06/14 03:34:45;;;;;;;3.72;0.80;;;;;;;11.88;66.48;100657.31;10503330;28;20040;-67
2022/06/14 03:40:12;;;;;;;3.20;1.10;;;;;;;12.00;65.87;100651.72;10502539;28;20045;-67
2022/06/14 03:45:20;;;;;;;2.50;1.00;;;;;;;11.88;66.83;100666.09;10501046;28;20074;-68
2022/06/14 03:50:35;;;;;;;1.67;0.75;;;;;;;12.09;65.58;100660.25;10502071;28;20563;-68
2022/06/14 03:55:39;;;;;;;3.88;1.20;;;;;;;12.02;65.51;100656.03;10502195;28;20037;-67
2022/06/14 04:00:49;;;;;;;1.50;0.73;;;;;;;12.00;65.64;100660.50;10501098;28;20498;-68
2022/06/14 04:06:09;;;;;;;4.45;1.13;;;;;;;11.89;66.64;100670.44;10501850;28;20498;-68
2022/06/14 04:11:17;;;;;;;2.00;0.98;;;;;;;12.12;66.01;100667.16;10489737;22;20504;-70
2022/06/14 04:16:35;;;;;;;3.22;0.90;;;;;;;12.23;65.73;100680.06;10461777;28;20041;-70
2022/06/14 04:21:51;;;;;;;3.20;1.00;;;;;;;12.27;65.54;100679.06;10461161;28;20055;-70
2022/06/14 04:27:08;;;;;;;9.60;1.27;;;;;;;12.25;66.19;100672.97;10459417;28;20043;-70
2022/06/14 04:32:15;;;;;;;4.85;1.10;;;;;;;12.36;65.05;100671.75;10460687;28;20064;-71
2022/06/14 04:37:41;;;;;;;3.10;1.42;;;;;;;12.49;64.82;100674.91;10460964;28;20094;-70
2022/06/14 04:43:24;;;;;;;3.58;1.10;;;;;;;12.78;64.12;100667.88;10458409;28;20045;-71
2022/06/14 04:48:39;;;;;;;3.08;1.00;;;;;;;12.94;63.05;100663.88;10331733;28;20058;-71
2022/06/14 04:53:50;;;;;;;2.67;0.90;;;;;;;12.93;62.92;100658.66;10315217;28;20077;-71
2022/06/14 04:59:04;;;;;;;1.90;0.80;;;;;;;13.05;62.86;100661.72;10332319;28;20054;-71
2022/06/14 05:04:23;;;;;;;4.13;0.90;;;;;;;13.53;61.82;100668.13;10331678;28;20543;-71
2022/06/14 05:09:40;;;;;;;3.38;1.20;;;;;;;13.47;62.12;100665.72;10330595;28;20062;-71
2022/06/14 05:14:47;;;;;;;;;;;;;;;13.86;60.13;100663.47;10330985;28;20050;-71
2022/06/14 05:19:52;;;;;;;;;;;;;;;14.16;58.76;100665.91;10365653;28;20293;-70
2022/06/14 05:24:53;;;;;;;3.88;1.00;;;;;;;14.17;58.83;100678.25;10456758;28;19925;-70
2022/06/14 05:30:00;;;;;;;3.47;1.05;;;;;;;14.50;57.23;100689.38;10456908;28;20488;-70
2022/06/14 05:35:02;;;;;;;;;;;;;;;14.69;56.72;100679.81;10457156;28;20048;-71
2022/06/14 05:40:21;;;;;;;5.07;1.30;;;;;;;13.93;59.66;100683.47;10457217;28;19925;-71
2022/06/14 05:45:23;;;;;;;3.15;1.40;;;;;;;14.48;58.58;100680.63;10459626;28;20078;-70
2022/06/14 05:50:31;;;;;;;4.88;0.98;;;;;;;14.95;55.90;100684.09;10457078;28;20049;-71
2022/06/14 05:55:38;;;;;;;5.10;0.93;;;;;;;14.95;56.23;100692.03;10457320;28;20060;-71
2022/06/14 06:00:52;;;;;;;4.78;1.30;;;;;;;14.99;55.86;100700.72;10438554;28;20088;-71
2022/06/14 06:06:00;;;;;;;5.63;1.02;;;;;;;14.79;57.23;100704.16;10456844;28;20379;-72
2022/06/14 06:11:19;;;;;;;3.92;1.10;;;;;;;14.76;57.08;100707.78;10456157;28;20052;-72
2022/06/14 06:16:35;;;;;;;4.35;0.90;;;;;;;14.84;56.76;100720.72;10457044;28;20051;-72
2022/06/14 06:21:44;;;;;;;5.00;1.10;;;;;;;14.79;57.34;100723.53;10461079;28;20071;-71
2022/06/14 06:26:55;;;;;;;6.20;1.30;;;;;;;15.35;55.40;100709.84;10465905;28;20326;-69
2022/06/14 06:31:59;;;;;;;3.75;0.88;;;;;;;15.57;54.76;100714.25;10464017;28;20037;-71
2022/06/14 06:37:28;;;;;;;3.45;0.70;;;;;;;15.91;54.25;100711.09;10465240;28;20043;-71
2022/06/14 06:42:30;;;;;;;2.88;0.70;;;;;;;16.49;52.28;100707.66;10464240;28;20075;-71
2022/06/14 06:47:43;;;;;;;4.50;1.30;;;;;;;16.59;51.50;100706.28;10465259;28;20052;-71
2022/06/14 06:53:02;;;;;;;6.10;1.10;;;;;;;16.58;53.47;100705.41;10464345;28;20280;-70
2022/06/14 06:58:12;;;;;;;4.72;1.10;;;;;;;16.71;52.36;100712.81;10463373;28;20056;-70
2022/06/14 07:03:44;;;;;;;7.72;1.10;;;;;;;16.90;49.81;100706.59;10463615;28;20116;-70
2022/06/14 07:08:55;;;;;;;3.70;1.30;;;;;;;16.71;51.85;100708.38;10465308;28;20049;-70
2022/06/14 07:14:05;;;;;;;2.65;0.95;;;;;;;16.83;50.40;100720.25;10463657;28;20073;-71
2022/06/14 07:19:40;;;;;;;4.03;0.90;;;;;;;17.04;50.62;100713.91;10464477;28;20124;-70
2022/06/14 07:25:09;;;;;;;5.90;1.10;;;;;;;16.90;49.78;100733.16;10462226;28;20052;-70
2022/06/14 07:30:26;;;;;;;4.50;0.75;;;;;;;17.24;46.99;100710.31;10446217;28;20057;-71
2022/06/14 07:35:55;;;;;;;5.47;1.10;;;;;;;16.90;48.08;100705.75;10462935;28;20040;-71
2022/06/14 07:41:24;;;;;;;3.92;0.73;;;;;;;17.02;47.51;100702.50;10463423;28;20123;-71
2022/06/14 07:46:47;;;;;;;3.13;1.10;;;;;;;16.89;46.22;100699.56;10432067;28;20085;-70
2022/06/14 07:52:04;;;;;;;3.10;0.80;;;;;;;17.49;46.82;100711.78;10412045;28;20133;-71
2022/06/14 07:57:16;;;;;;;4.00;0.90;;;;;;;17.53;45.81;100703.56;10461981;28;20056;-69
2022/06/14 08:02:20;;;;;;;2.38;0.73;;;;;;;18.56;43.77;100706.25;10461405;28;20498;-70
2022/06/14 08:07:23;;;;;;;3.67;0.90;;;;;;;18.97;42.62;100714.63;10460678;28;20029;-70
2022/06/14 08:12:51;;;;;;;2.15;0.70;;;;;;;18.50;43.96;100710.06;10461663;28;20056;-71
2022/06/14 08:18:05;;;;;;;3.67;0.82;;;;;;;19.02;43.26;100715.22;10463450;28;20037;-70
2022/06/14 08:23:37;;;;;;;2.97;0.93;;;;;;;18.33;44.88;100710.13;10461321;28;20045;-70
2022/06/14 08:28:46;;;;;;;4.90;1.38;;;;;;;17.73;46.40;100697.25;10453850;28;20064;-70
2022/06/14 08:33:59;;;;;;;2.90;0.80;;;;;;;17.98;45.70;100702.19;10461786;28;20049;-70
2022/06/14 08:39:08;;;;;;;3.60;0.95;;;;;;;18.34;46.14;100701.22;10462911;28;20053;-70
2022/06/14 08:44:16;;;;;;;4.55;1.20;;;;;;;18.63;46.90;100700.47;10460177;28;20112;-71
2022/06/14 08:49:48;;;;;;;4.43;1.10;;;;;;;18.48;45.76;100709.31;10460359;28;20056;-70
2022/06/14 08:55:01;;;;;;;3.42;1.10;;;;;;;18.51;47.24;100694.97;10459307;28;20048;-70
2022/06/14 09:00:40;;;;;;;3.22;1.00;;;;;;;18.31;46.04;100704.88;10462492;28;20045;-70
2022/06/14 09:06:14;;;;;;;4.88;1.52;;;;;;;18.54;46.72;100694.78;10458227;28;20055;-71
2022/06/14 09:11:55;;;;;;;5.18;1.55;;;;;;;18.40;45.73;100696.41;10412567;28;20055;-71
2022/06/14 09:17:21;;;;;;;3.47;0.90;;;;;;;18.61;47.18;100689.06;10444522;28;20053;-71
2022/06/14 09:22:53;;;;;;;5.40;1.10;;;;;;;19.93;43.82;100680.69;10462183;28;20044;-71
2022/06/14 09:28:42;;;;;;;2.20;0.82;;;;;;;20.26;41.90;100675.09;10459777;28;20053;-71
2022/06/14 09:34:00;;;;;;;4.72;1.35;;;;;;;20.45;42.81;100672.13;10459414;28;20471;-71
2022/06/14 09:39:29;;;;;;;3.72;1.20;;;;;;;20.37;41.49;100669.97;10456049;28;20072;-71
2022/06/14 09:44:49;;;;;;;4.50;1.10;;;;;;;20.09;41.02;100666.28;10460991;28;20037;-72
2022/06/14 09:50:11;;;;;;;3.42;1.48;;;;;;;20.13;40.61;100667.81;10457481;28;20392;-71
2022/06/14 09:55:25;;;;;;;2.47;1.10;;;;;;;19.31;42.59;100667.44;10457419;28;20041;-71
2022/06/14 10:00:36;;;;;;;3.42;1.10;;;;;;;19.48;41.63;100661.09;10455916;28;20502;-71
2022/06/14 10:06:10;;;;;;;4.50;1.17;;;;;;;19.79;39.96;100666.38;10459339;28;20045;-70
2022/06/14 10:11:33;;;;;;;2.30;0.77;;;;;;;19.81;39.06;100652.94;10433414;28;20064;-70
2022/06/14 10:16:58;;;;;;;2.75;1.02;;;;;;;20.77;39.07;100654.09;10457737;28;20502;-70
2022/06/14 10:22:30;;;;;;;2.78;0.90;;;;;;;21.02;39.56;100651.53;10458616;28;20498;-71
2022/06/14 10:33:21;;;;;;;4.95;1.10;;;;;;;20.75;39.49;100656.84;10472939;28;20445;-71
2022/06/14 10:38:34;;;;;;;3.78;0.98;;;;;;;20.91;39.11;100646.91;10455430;28;20053;-72
2022/06/14 10:44:03;;;;;;;3.22;0.93;;;;;;;20.80;37.98;100643.19;10458074;28;20051;-71
2022/06/14 10:49:24;;;;;;;4.03;0.80;;;;;;;21.08;36.67;100645.81;10441978;28;20045;-70
2022/06/14 10:54:28;;;;;;;2.65;0.90;;;;;;;21.49;37.94;100642.22;10457297;28;20049;-71
2022/06/14 10:59:37;;;;;;;3.27;1.00;;;;;;;21.79;35.25;100646.44;10456157;28;20071;-71
2022/06/14 11:04:52;;;;;;;3.22;0.90;;;;;;;21.85;35.46;100646.84;10456382;28;20055;-71
2022/06/14 11:10:28;;;;;;;3.60;0.80;;;;;;;21.03;39.05;100641.69;10464899;28;20083;-71
2022/06/14 11:15:39;;;;;;;3.63;1.25;;;;;;;20.80;38.88;100645.88;10464538;28;20041;-71
2022/06/14 11:21:05;;;;;;;2.47;0.95;;;;;;;21.10;38.83;100635.84;10464322;28;20391;-71
2022/06/14 11:26:27;;;;;;;;;;;;;;;21.56;36.42;100642.63;10465411;28;20410;-70
2022/06/14 11:31:42;;;;;;;3.03;0.80;;;;;;;21.84;37.67;100637.13;10469626;28;19921;-71
2022/06/14 11:37:09;;;;;;;3.77;1.00;;;;;;;21.77;37.58;100634.97;10464204;28;20059;-70
2022/06/14 11:42:23;;;;;;;2.13;0.80;;;;;;;21.46;38.23;100625.50;10461813;28;20287;-71
2022/06/14 11:47:51;;;;;;;3.63;1.02;;;;;;;21.39;36.27;100633.97;10462653;28;20052;-71
2022/06/14 11:53:28;;;;;;;4.18;0.73;;;;;;;22.06;36.90;100623.09;10460889;28;20041;-72
2022/06/14 11:58:33;;;;;;;4.30;1.05;;;;;;;22.30;35.67;100620.53;10395069;28;20387;-70
2022/06/14 12:03:57;;;;;;;4.93;0.90;;;;;;;21.32;37.63;100608.56;10462865;28;20049;-71
2022/06/14 12:09:07;;;;;;;2.42;0.80;;;;;;;21.78;36.61;100610.81;10461857;28;20048;-70
2022/06/14 12:14:34;;;;;;;4.05;0.85;;;;;;;21.89;36.65;100612.72;10460567;28;20124;-71
2022/06/14 12:19:36;;;;;;;1.33;0.57;;;;;;;22.50;35.08;100597.69;10463079;28;20040;-71
2022/06/14 12:30:00;;;;;;;5.38;1.08;;;;;;;21.77;36.30;100592.16;10461041;28;20521;-71
2022/06/14 12:35:09;;;;;;;2.45;0.95;;;;;;;21.92;35.86;100597.31;10458953;28;20045;-70
2022/06/14 12:40:10;;;;;;;2.80;0.80;;;;;;;23.13;35.17;100580.50;10464262;28;20045;-72
2022/06/14 12:45:28;;;;;;;4.90;1.00;;;;;;;22.61;33.74;100591.53;10458336;28;20038;-70
2022/06/14 12:50:40;;;;;;;7.22;1.10;;;;;;;22.08;35.49;100589.03;10458326;28;20124;-70
2022/06/14 12:55:55;;;;;;;3.25;1.00;;;;;;;22.05;36.23;100575.03;10459222;28;20063;-71
2022/06/14 13:01:19;;;;;;;5.68;0.93;;;;;;;22.62;33.22;100567.31;10460623;28;20119;-70
2022/06/14 13:06:24;;;;;;;3.55;0.80;;;;;;;21.99;35.39;100567.41;10474714;28;20432;-71
2022/06/14 13:11:58;;;;;;;4.38;1.00;;;;;;;22.13;34.32;100568.22;10457943;28;20414;-71
2022/06/14 13:17:00;;;;;;;3.63;1.05;;;;;;;21.45;35.65;100568.50;10474140;28;20040;-71
2022/06/14 13:22:10;;;;;;;2.63;0.57;;;;;;;21.71;34.37;100564.00;10461263;28;20045;-71
2022/06/14 13:27:18;;;;;;;3.00;0.70;;;;;;;21.62;34.43;100548.59;10457673;28;20060;-72
2022/06/14 13:32:32;;;;;;;2.20;0.80;;;;;;;22.07;33.86;100551.66;10460015;28;20041;-71
2022/06/14 13:37:45;;;;;;;3.53;0.70;;;;;;;22.55;34.35;100557.16;10439372;28;20137;-71
2022/06/14 13:43:08;;;;;;;1.83;0.60;;;;;;;22.14;34.52;100553.84;10455305;28;20060;-70
2022/06/14 13:48:39;;;;;;;3.15;1.08;;;;;;;22.14;34.47;100548.50;10458312;28;20063;-70
2022/06/14 13:54:09;;;;;;;2.05;0.70;;;;;;;21.88;35.16;100552.97;10425836;28;20049;-71
2022/06/14 13:59:22;;;;;;;2.97;0.60;;;;;;;21.77;35.46;100544.00;10456818;28;20052;-71
2022/06/14 14:05:02;;;;;;;3.78;0.90;;;;;;;21.83;36.38;100539.06;10457626;28;20041;-71
2022/06/14 14:10:04;;;;;;;4.38;0.90;;;;;;;22.41;34.54;100529.56;10456147;28;20041;-71
2022/06/14 14:15:23;;;;;;;2.65;0.73;;;;;;;22.06;32.78;100521.38;10458053;28;20037;-70
2022/06/14 14:20:40;;;;;;;2.33;0.90;;;;;;;21.96;34.84;100525.69;10455109;28;20141;-71
2022/06/14 14:26:34;;;;;;;3.38;0.68;;;;;;;21.73;35.40;100526.44;10456522;28;20125;-71
2022/06/14 14:31:42;;;;;;;4.85;1.20;;;;;;;22.15;33.87;100523.41;10289233;28;20054;-71
2022/06/14 14:36:50;;;;;;;2.78;0.63;;;;;;;22.45;34.14;100499.88;10290613;28;20455;-72
2022/06/14 14:42:16;;;;;;;3.20;1.00;;;;;;;22.57;34.10;100502.47;10276770;28;20047;-71
2022/06/14 14:47:24;;;;;;;3.95;0.80;;;;;;;21.91;34.26;100495.69;10296378;28;20146;-71
2022/06/14 14:52:33;;;;;;;2.33;0.90;;;;;;;21.55;34.88;100501.84;10295874;28;20051;-71
2022/06/14 14:57:45;;;;;;;2.85;0.80;;;;;;;22.04;34.71;100490.31;10296463;28;20432;-71
2022/06/14 15:08:35;;;;;;;3.10;1.08;;;;;;;23.06;33.05;100490.75;10457581;28;20053;-72
2022/06/14 15:13:37;;;;;;;1.73;0.88;;;;;;;22.48;33.75;100483.56;10462201;28;20041;-72
2022/06/14 15:24:09;;;;;;;2.95;0.75;;;;;;;22.91;32.52;100476.72;10463985;28;20128;-71
2022/06/14 15:29:35;;;;;;;3.40;0.90;;;;;;;22.40;33.20;100474.28;10462054;28;20116;-72
2022/06/14 15:34:43;;;;;;;2.53;0.80;;;;;;;23.20;33.44;100470.06;10462335;28;20045;-71
2022/06/14 15:40:14;;;;;;;2.63;0.98;;;;;;;23.36;32.38;100462.53;10462415;28;20053;-72
2022/06/14 15:45:32;;;;;;;2.55;1.00;;;;;;;23.41;33.19;100450.47;10458405;28;20115;-71
2022/06/14 15:50:40;;;;;;;4.43;0.95;;;;;;;23.86;32.39;100445.16;10462230;28;20438;-71
2022/06/14 15:55:48;;;;;;;2.63;0.88;;;;;;;23.01;32.68;100447.38;10459732;28;20491;-72
2022/06/14 16:00:55;;;;;;;1.48;0.70;;;;;;;22.60;34.21;100437.09;10461037;28;20052;-71
2022/06/14 16:06:02;;;;;;;2.03;0.82;;;;;;;22.63;32.89;100434.19;10464152;28;20037;-69
2022/06/14 16:11:07;;;;;;;1.85;0.90;;;;;;;22.90;32.98;100431.25;10493566;22;20040;-71
2022/06/14 16:16:31;;;;;;;2.45;0.90;;;;;;;22.28;33.97;100436.84;10505741;28;20047;-72
2022/06/14 16:21:40;;;;;;;2.95;1.08;;;;;;;22.00;34.87;100437.97;10506011;28;20041;-71
2022/06/14 16:26:48;;;;;;;2.42;0.80;;;;;;;21.65;34.93;100444.06;10506921;28;20476;-70
2022/06/14 16:31:57;;;;;;;1.85;0.70;;;;;;;21.99;34.96;100423.72;10470758;28;20178;-71
2022/06/14 16:37:46;;;;;;;3.42;1.08;;;;;;;21.98;35.55;100435.41;10505577;28;20047;-71
2022/06/14 16:43:01;;;;;;;1.70;0.68;;;;;;;21.78;36.07;100434.19;10335543;28;20500;-72
2022/06/14 16:48:11;;;;;;;2.47;0.70;;;;;;;22.07;33.86;100433.88;10336066;28;20058;-71
2022/06/14 16:53:16;;;;;;;3.90;1.00;;;;;;;21.32;34.95;100432.09;10333824;28;20074;-73
2022/06/14 16:58:43;;;;;;;4.40;1.00;;;;;;;21.33;35.68;100436.47;10334649;28;20050;-72
2022/06/14 17:04:07;;;;;;;2.22;0.80;;;;;;;20.77;36.99;100433.22;10333804;28;20058;-71
2022/06/14 17:09:18;;;;;;;2.92;0.80;;;;;;;20.97;36.07;100426.50;10319210;28;20498;-72
2022/06/14 17:14:45;;;;;;;3.65;1.00;;;;;;;20.61;36.84;100428.03;10362812;28;20047;-72
2022/06/14 17:19:56;;;;;;;3.15;0.80;;;;;;;20.51;37.95;100418.94;10484691;28;20045;-72
2022/06/14 17:25:06;;;;;;;3.58;0.80;;;;;;;20.59;37.72;100411.28;10501479;28;20036;-72
2022/06/14 17:30:11;;;;;;;2.60;0.80;;;;;;;20.31;39.01;100414.88;10500615;28;20068;-72
2022/06/14 17:35:17;;;;;;;3.65;0.90;;;;;;;20.49;37.81;100422.66;10501181;28;20490;-72
2022/06/14 17:40:32;;;;;;;2.67;0.80;;;;;;;20.41;37.04;100418.66;10485205;28;20501;-72
2022/06/14 17:45:41;;;;;;;4.45;0.95;;;;;;;20.19;37.56;100428.16;10483578;28;20068;-71
2022/06/14 17:50:46;;;;;;;3.25;2.55;;;;;;;20.03;38.34;100426.50;10502967;28;20410;-72
2022/06/14 17:56:15;;;;;;;1.98;0.73;;;;;;;20.20;37.14;100427.25;10501270;28;20075;-72
2022/06/14 18:01:42;;;;;;;2.85;0.90;;;;;;;19.71;39.14;100425.91;10484698;28;20076;-72
2022/06/14 18:06:55;;;;;;;3.15;1.00;;;;;;;19.64;40.07;100422.78;10502370;28;20059;-72
2022/06/14 18:11:57;;;;;;;2.30;0.90;;;;;;;19.58;39.89;100417.81;10501601;28;20511;-72
2022/06/14 18:16:59;;;;;;;2.03;0.70;;;;;;;19.61;39.72;100433.66;10506321;28;20048;-73
2022/06/14 18:22:02;;;;;;;1.70;0.90;;;;;;;19.49;40.63;100434.38;10510352;28;20528;-71
2022/06/14 18:27:04;;;;;;;1.98;0.85;;;;;;;19.64;39.15;100437.91;10492885;28;20047;-72
2022/06/14 18:32:16;;;;;;;2.40;1.00;;;;;;;19.31;40.66;100436.38;10493039;28;20044;-70
2022/06/14 18:37:22;;;;;;;2.17;0.85;;;;;;;18.89;42.23;100442.50;10509008;28;20048;-70
2022/06/14 18:42:30;;;;;;;3.00;0.70;;;;;;;18.80;41.90;100437.72;10517209;28;20040;-70
2022/06/14 18:47:58;;;;;;;2.45;0.80;;;;;;;18.70;42.39;100431.22;10509731;28;20043;-71
2022/06/14 18:53:08;;;;;;;2.40;0.70;;;;;;;18.63;43.23;100425.34;10503718;28;20036;-72
2022/06/14 18:58:16;;;;;;;1.65;0.70;;;;;;;18.46;43.57;100436.13;10477012;28;20080;-72
2022/06/14 19:03:24;;;;;;;1.33;0.60;;;;;;;18.32;44.13;100435.13;10548820;28;20062;-70
2022/06/14 19:08:47;;;;;;;1.27;0.60;;;;;;;18.26;44.21;100429.31;10531234;28;20044;-71
2022/06/14 19:13:55;;;;;;;2.03;0.87;;;;;;;18.23;44.63;100437.47;10530791;28;20098;-70
2022/06/14 19:19:05;;;;;;;3.15;1.00;;;;;;;18.01;45.81;100443.13;10498613;28;20040;-72
2022/06/14 19:24:07;;;;;;;2.00;0.88;;;;;;;17.89;46.13;100439.38;10488226;28;20102;-71
2022/06/14 19:29:36;;;;;;;2.38;0.98;;;;;;;17.82;46.50;100435.34;10506042;28;20040;-71
2022/06/14 19:34:50;;;;;;;2.40;1.05;;;;;;;17.75;46.64;100441.91;10508141;28;20040;-71
2022/06/14 19:40:00;;;;;;;2.45;1.40;;;;;;;17.69;47.26;100444.91;10505449;28;20501;-70
2022/06/14 19:45:27;;;;;;;2.20;0.85;;;;;;;17.59;47.61;100453.38;10517178;28;20048;-70
2022/06/14 19:50:58;;;;;;;2.45;1.30;;;;;;;17.43;47.74;100454.28;10501572;28;20478;-71
2022/06/14 19:56:04;;;;;;;2.22;1.23;;;;;;;17.25;48.42;100454.31;10375879;28;20050;-71
2022/06/14 20:01:09;;;;;;;2.78;1.30;;;;;;;17.15;48.86;100451.28;10369229;28;20059;-71
2022/06/14 20:06:32;;;;;;;2.77;1.20;;;;;;;16.90;50.25;100456.13;10312227;28;20078;-72
2022/06/14 20:11:42;;;;;;;3.80;1.75;;;;;;;17.04;49.94;100455.41;10281337;28;20138;-70
2022/06/14 20:17:01;;;;;;;2.35;1.10;;;;;;;16.94;49.96;100462.16;10280034;28;20622;-70
2022/06/14 20:22:06;;;;;;;3.90;1.60;;;;;;;16.82;50.41;100466.28;10296982;28;20142;-70
2022/06/14 20:27:11;;;;;;;4.65;1.38;;;;;;;16.63;50.87;100461.88;10295978;28;20058;-70
2022/06/14 20:32:14;;;;;;;3.90;1.50;;;;;;;16.09;53.12;100468.94;10399810;28;20087;-72
2022/06/14 20:37:17;;;;;;;2.45;1.23;;;;;;;15.92;53.34;100463.56;10443627;28;20033;-71
2022/06/14 20:42:22;;;;;;;4.78;1.92;;;;;;;15.95;53.80;100466.09;10460923;28;20043;-72
2022/06/14 20:47:25;;;;;;;3.42;1.52;;;;;;;16.09;53.46;100465.44;10444808;28;20096;-71
2022/06/14 20:52:27;;;;;;;4.35;1.42;;;;;;;16.25;53.00;100462.94;10461261;28;20045;-71
2022/06/14 20:57:37;;;;;;;4.28;1.30;;;;;;;16.03;53.40;100456.00;10460487;28;20037;-70
2022/06/14 21:02:41;;;;;;;3.08;1.40;;;;;;;15.67;54.49;100447.09;10460458;28;20522;-70
2022/06/14 21:07:44;;;;;;;4.13;1.27;;;;;;;15.44;55.09;100456.06;10441451;28;20051;-70
2022/06/14 21:12:46;;;;;;;4.40;1.73;;;;;;;15.40;55.04;100460.63;10425317;28;20486;-70
2022/06/14 21:17:49;;;;;;;3.78;1.95;;;;;;;15.18;55.50;100460.72;10458670;28;20043;-70
2022/06/14 21:22:53;;;;;;;4.85;2.17;;;;;;;15.16;55.47;100461.75;10459190;28;20135;-70
2022/06/14 21:27:55;;;;;;;6.72;2.22;;;;;;;15.21;55.35;100457.09;10459056;28;20037;-70
2022/06/14 21:33:05;;;;;;;6.57;2.00;;;;;;;15.31;54.98;100455.75;10442034;28;20060;-70
2022/06/14 21:38:16;;;;;;;7.50;2.35;;;;;;;15.18;54.60;100459.88;10442070;28;20043;-70
2022/06/14 21:43:22;;;;;;;6.72;2.50;;;;;;;14.97;55.82;100456.38;10460910;28;20069;-71
2022/06/14 21:48:26;;;;;;;4.63;1.85;;;;;;;14.85;55.89;100460.41;10442725;28;20037;-70
2022/06/14 21:53:31;;;;;;;4.22;2.40;;;;;;;15.07;55.02;100452.41;10459269;28;20133;-70
2022/06/14 21:58:36;;;;;;;5.43;2.03;;;;;;;14.71;56.79;100462.78;10460295;28;20065;-70
2022/06/14 22:03:59;;;;;;;3.13;1.40;;;;;;;14.42;58.08;100464.81;10459470;28;20128;-72
2022/06/14 22:14:33;;;;;;;3.67;1.23;;;;;;;14.43;57.91;100466.50;10361319;28;20050;-69
2022/06/14 22:19:35;;;;;;;3.97;1.65;;;;;;;14.52;58.57;100460.03;10375972;28;20415;-70
2022/06/14 22:24:42;;;;;;;3.13;1.77;;;;;;;14.48;58.05;100467.25;10359023;28;20461;-71
2022/06/14 22:29:49;;;;;;;4.20;1.80;;;;;;;14.20;59.28;100471.88;10376147;28;20113;-71
2022/06/14 22:34:58;;;;;;;2.63;1.20;;;;;;;13.94;60.14;100472.91;10357957;28;20591;-70
2022/06/14 22:39:59;;;;;;;2.75;1.70;;;;;;;13.84;60.65;100475.88;10376849;28;20041;-71
2022/06/14 22:45:01;;;;;;;6.20;3.95;;;;;;;13.74;60.31;100468.38;10375637;28;20384;-70
2022/06/14 22:50:04;;;;;;;4.70;2.85;;;;;;;13.69;60.93;100486.19;10375668;28;20086;-70
2022/06/14 22:55:07;;;;;;;4.55;2.58;;;;;;;13.73;61.37;100488.66;10375035;28;20053;-70
2022/06/14 23:00:11;;;;;;;4.68;2.78;;;;;;;13.55;61.73;100495.50;10376474;28;20056;-69
2022/06/14 23:05:12;;;;;;;5.10;3.50;;;;;;;13.88;61.28;100501.28;10362195;28;20045;-70
2022/06/14 23:10:14;;;;;;;3.22;2.53;;;;;;;13.58;61.96;100495.34;10363857;28;20492;-70
2022/06/14 23:15:16;;;;;;;5.85;2.92;;;;;;;13.66;61.80;100491.59;10380398;28;20054;-70
2022/06/14 23:20:17;;;;;;;6.50;4.10;;;;;;;13.51;62.41;100483.31;10383469;28;20056;-70
2022/06/14 23:25:19;;;;;;;4.07;2.97;;;;;;;13.27;62.95;100478.91;10363496;28;20056;-70
2022/06/14 23:30:21;;;;;;;7.78;3.72;;;;;;;12.94;64.76;100484.44;10382697;28;20057;-70
2022/06/14 23:35:22;;;;;;;5.15;3.78;;;;;;;13.03;64.30;100480.63;10381391;28;20571;-70
2022/06/14 23:40:24;;;;;;;4.85;4.35;;;;;;;12.98;64.98;100490.47;10383654;28;20054;-70
2022/06/14 23:45:26;;;;;;;4.78;3.90;;;;;;;13.04;64.29;100480.53;10382967;28;20037;-70
2022/06/14 23:50:28;;;;;;;5.32;3.45;;;;;;;13.20;64.20;100487.94;10380113;28;20050;-70
2022/06/14 23:55:29;;;;;;;6.07;3.58;;;;;;;13.40;63.45;100476.69;10380395;28;20411;-70
